Portage la Prairie, Canada
Current Conditions -  °F | °C
As of 7:00 PM on Monday 26 Jan 2015 (Local Time) from CYPG Reporting Station
Few Clouds Few Clouds  
Wind Chill: 11°   Ceiling: Unl
Heat Index: 19°   Visibility: 15mi
Dew Point: 18°   Wind: 6mph
Humidity: 93%   Direction: 140°SE
Pressure: 29.97"   Gusts: NA
Location:  49.97°N, 98.29°W
Report Text: CYPG 270100Z 14005KT 15SM FEW110 FEW220 M07/M08 A2997 RMKAC1CI2 SLP165
Loading
Personal Weather Stations






























Interactive Weather Map New forecast layout! Learn more

10-Day Weather Forecast

Advertisements
Track Severe Weather on mobile